createdAt,value
2023-02-23T00:01:48.251Z,173.30
2023-02-23T00:04:15.750Z,156.60
2023-02-23T00:06:43.116Z,170.73
2023-02-23T00:09:22.754Z,168.20
2023-02-23T00:11:55.176Z,167.05
2023-02-23T00:14:27.486Z,165.15
2023-02-23T00:16:59.950Z,166.15
2023-02-23T00:19:27.483Z,171.98
2023-02-23T00:21:54.962Z,178.35
2023-02-23T00:24:23.192Z,166.23
2023-02-23T00:26:51.462Z,161.82
2023-02-23T00:29:22.065Z,168.13
2023-02-23T00:31:50.906Z,172.40
2023-02-23T00:34:21.159Z,166.70
2023-02-23T00:36:55.116Z,177.15
2023-02-23T00:39:29.360Z,155.25
2023-02-23T00:42:02.800Z,161.15
2023-02-23T00:44:30.649Z,166.23
2023-02-23T00:46:58.116Z,162.93
2023-02-23T00:49:25.534Z,155.38
2023-02-23T00:51:53.573Z,158.30
2023-02-23T00:54:21.884Z,156.77
2023-02-23T00:56:49.883Z,165.25
2023-02-23T00:59:17.826Z,182.60
2023-02-23T01:01:45.548Z,155.77
2023-02-23T01:04:14.059Z,162.55
2023-02-23T01:06:42.641Z,179.90
2023-02-23T01:09:16.123Z,159.88
2023-02-23T01:11:46.663Z,164.65
2023-02-23T01:14:15.356Z,157.15
2023-02-23T01:16:42.728Z,152.20
2023-02-23T01:19:10.526Z,151.30
2023-02-23T01:21:42.064Z,163.32
2023-02-23T01:24:10.431Z,167.48
2023-02-23T01:26:44.102Z,159.50
2023-02-23T01:29:14.512Z,148.63
2023-02-23T01:31:46.403Z,165.93
2023-02-23T01:34:18.649Z,169.40
2023-02-23T01:36:46.336Z,179.23
2023-02-23T01:39:19.600Z,150.35
2023-02-23T01:41:47.077Z,161.40
2023-02-23T01:44:15.453Z,172.18
2023-02-23T01:46:45.722Z,161.57
2023-02-23T01:49:26.111Z,164.18
2023-02-23T01:52:03.037Z,165.85
2023-02-23T01:54:41.048Z,166.60
2023-02-23T01:57:13.640Z,186.70
2023-02-23T01:59:49.062Z,162.48
2023-02-23T02:02:19.253Z,167.85
2023-02-23T02:04:52.091Z,177.83
2023-02-23T02:07:26.049Z,168.10
2023-02-23T02:10:13.327Z,159.43
2023-02-23T02:12:44.243Z,159.60
2023-02-23T02:15:17.475Z,152.50
2023-02-23T02:18:23.406Z,160.50
2023-02-23T02:21:12.578Z,169.73
2023-02-23T02:24:05.344Z,151.77
2023-02-23T02:27:07.512Z,169.98
2023-02-23T02:29:57.772Z,168.88
2023-02-23T02:33:15.662Z,165.98
2023-02-23T02:36:14.277Z,169.23
2023-02-23T02:38:59.444Z,171.70
2023-02-23T02:41:55.596Z,172.48
2023-02-23T02:44:51.886Z,170.40
2023-02-23T02:47:43.107Z,152.98
2023-02-23T02:50:31.502Z,168.33
2023-02-23T02:53:09.905Z,169.90
2023-02-23T02:55:43.315Z,176.93
2023-02-23T02:58:12.557Z,173.90
2023-02-23T03:01:03.233Z,170.15
2023-02-23T03:03:58.727Z,166.80
2023-02-23T03:07:02.186Z,171.00
2023-02-23T03:10:17.630Z,157.63
2023-02-23T03:13:18.655Z,176.60
2023-02-23T03:16:30.203Z,176.15
2023-02-23T03:19:35.982Z,165.33
2023-02-23T03:22:46.622Z,165.00
2023-02-23T03:25:46.165Z,157.95
2023-02-23T03:28:48.488Z,191.07
2023-02-23T03:31:51.116Z,165.75
2023-02-23T03:34:58.937Z,165.52
2023-02-23T03:38:19.213Z,162.02
2023-02-23T03:41:07.468Z,174.85
2023-02-23T03:44:13.610Z,161.13
2023-02-23T03:47:01.177Z,173.75
2023-02-23T03:49:52.508Z,186.23
2023-02-23T03:52:45.090Z,183.65
2023-02-23T03:55:38.616Z,184.32
2023-02-23T03:58:33.124Z,167.75
2023-02-23T04:01:22.627Z,179.95
2023-02-23T04:04:10.525Z,156.90
2023-02-23T04:07:01.956Z,166.30
2023-02-23T04:09:49.144Z,179.05
2023-02-23T04:12:44.735Z,165.48
2023-02-23T04:15:23.465Z,172.95
2023-02-23T04:17:52.563Z,167.35
2023-02-23T04:20:20.395Z,170.88
2023-02-23T04:22:47.721Z,178.70
2023-02-23T04:25:17.520Z,166.85
2023-02-23T04:27:45.149Z,172.48
2023-02-23T04:30:12.815Z,156.88
2023-02-23T04:32:40.216Z,178.80
2023-02-23T04:35:07.977Z,171.98
2023-02-23T04:37:35.481Z,166.18
2023-02-23T04:40:02.849Z,176.38
2023-02-23T04:42:30.469Z,176.48
2023-02-23T04:44:58.623Z,170.73
2023-02-23T04:47:26.137Z,161.65
2023-02-23T04:49:54.299Z,164.05
2023-02-23T04:52:21.605Z,186.65
2023-02-23T04:54:48.930Z,171.02
2023-02-23T04:57:16.289Z,179.88
2023-02-23T04:59:43.804Z,183.88
2023-02-23T05:02:11.905Z,171.13
2023-02-23T05:04:39.268Z,169.98
2023-02-23T05:07:06.601Z,157.70
2023-02-23T05:09:34.946Z,181.63
2023-02-23T05:12:02.417Z,176.60
2023-02-23T05:14:30.004Z,170.15
2023-02-23T05:16:57.473Z,170.45
2023-02-23T05:19:24.913Z,163.95
2023-02-23T05:21:52.295Z,180.05
2023-02-23T05:24:20.022Z,171.10
2023-02-23T05:26:48.664Z,167.20
2023-02-23T05:29:16.423Z,167.75
2023-02-23T05:31:43.944Z,180.98
2023-02-23T05:34:11.679Z,175.88
2023-02-23T05:36:38.977Z,174.32
2023-02-23T05:39:06.401Z,168.13
2023-02-23T05:41:33.870Z,168.98
2023-02-23T05:44:01.576Z,173.00
2023-02-23T05:46:30.091Z,166.85
2023-02-23T05:49:00.797Z,176.93
2023-02-23T05:51:30.522Z,172.70
2023-02-23T05:53:58.111Z,189.88
2023-02-23T05:56:25.942Z,165.13
2023-02-23T05:58:57.922Z,169.23
2023-02-23T06:01:27.065Z,166.32
2023-02-23T06:03:54.503Z,175.80
2023-02-23T06:06:24.120Z,156.20
2023-02-23T06:08:52.684Z,163.90
2023-02-23T06:11:21.021Z,179.20
2023-02-23T06:13:49.671Z,156.25
2023-02-23T06:16:17.165Z,179.23
2023-02-23T06:18:44.578Z,179.93
2023-02-23T06:21:11.995Z,165.75
2023-02-23T06:23:39.352Z,164.50
2023-02-23T06:26:06.689Z,173.30
2023-02-23T06:28:34.416Z,162.05
2023-02-23T06:31:01.790Z,179.57
2023-02-23T06:33:29.508Z,166.70
2023-02-23T06:35:57.450Z,167.93
2023-02-23T06:38:24.788Z,181.23
2023-02-23T06:40:52.172Z,168.98
2023-02-23T06:43:20.451Z,157.95
2023-02-23T06:45:49.090Z,171.57
2023-02-23T06:48:17.400Z,165.95
2023-02-23T06:50:44.772Z,175.35
2023-02-23T06:53:12.395Z,172.18
2023-02-23T06:55:39.802Z,167.68
2023-02-23T06:58:07.985Z,163.57
2023-02-23T07:00:35.437Z,162.98
2023-02-23T07:03:02.843Z,167.48
2023-02-23T07:05:30.262Z,161.70
2023-02-23T07:07:57.522Z,153.00
2023-02-23T07:10:24.935Z,170.98
2023-02-23T07:12:54.430Z,165.00
2023-02-23T07:15:21.855Z,164.35
2023-02-23T07:17:49.412Z,164.02
2023-02-23T07:20:16.876Z,175.75
2023-02-23T07:22:44.359Z,159.52
2023-02-23T07:25:11.832Z,165.13
2023-02-23T07:27:39.400Z,163.00
2023-02-23T07:30:07.456Z,152.55
2023-02-23T07:32:34.939Z,162.70
2023-02-23T07:35:02.946Z,151.82
2023-02-23T07:37:30.390Z,159.40
2023-02-23T07:39:59.527Z,162.52
2023-02-23T07:42:28.583Z,168.60
2023-02-23T07:44:56.193Z,155.05
2023-02-23T07:47:30.818Z,147.55
2023-02-23T07:49:59.768Z,152.30
2023-02-23T07:52:27.096Z,162.30
2023-02-23T07:54:54.576Z,169.85
2023-02-23T07:57:23.986Z,155.75
2023-02-23T07:59:52.272Z,148.52
2023-02-23T08:02:19.649Z,168.32
2023-02-23T08:04:47.927Z,165.57
2023-02-23T08:07:15.529Z,167.20
2023-02-23T08:09:42.936Z,175.35
2023-02-23T08:12:10.598Z,170.73
2023-02-23T08:14:37.914Z,164.63
2023-02-23T08:17:05.355Z,160.30
2023-02-23T08:19:32.787Z,159.68
2023-02-23T08:22:00.529Z,168.95
2023-02-23T08:24:29.521Z,171.77
2023-02-23T08:27:01.344Z,156.70
2023-02-23T08:31:56.452Z,160.48
2023-02-23T08:34:24.489Z,169.13
2023-02-23T08:36:52.987Z,165.32
2023-02-23T08:39:20.911Z,167.32
2023-02-23T08:41:48.213Z,167.80
2023-02-23T08:44:15.625Z,165.63
2023-02-23T08:46:45.231Z,179.57
2023-02-23T08:49:12.733Z,169.05
2023-02-23T08:51:41.473Z,181.00
2023-02-23T08:54:14.232Z,179.43
2023-02-23T08:56:42.277Z,198.75
2023-02-23T08:59:11.566Z,221.32
2023-02-23T09:01:39.011Z,189.18
2023-02-23T09:04:06.367Z,191.25
2023-02-23T09:06:35.295Z,207.88
2023-02-23T09:09:02.792Z,200.65
2023-02-23T09:11:30.079Z,205.80
2023-02-23T09:13:57.388Z,206.48
2023-02-23T09:16:25.077Z,217.30
2023-02-23T09:18:52.680Z,192.70
2023-02-23T09:21:22.406Z,212.05
2023-02-23T09:23:51.370Z,192.57
2023-02-23T09:26:19.977Z,194.30
2023-02-23T09:28:48.655Z,191.43
2023-02-23T09:31:21.272Z,201.88
2023-02-23T09:33:49.194Z,199.23
2023-02-23T09:36:22.757Z,190.75
2023-02-23T09:38:55.363Z,192.90
2023-02-23T09:41:25.586Z,205.52
2023-02-23T09:44:25.908Z,201.77
2023-02-23T09:47:05.505Z,217.00
2023-02-23T09:49:37.863Z,187.90
2023-02-23T09:52:11.688Z,199.15
2023-02-23T09:54:39.263Z,199.88
2023-02-23T09:57:14.533Z,206.88
2023-02-23T09:59:42.598Z,181.77
2023-02-23T10:02:21.857Z,198.40
2023-02-23T10:05:11.840Z,191.95
2023-02-23T10:07:56.428Z,198.45
2023-02-23T10:10:27.941Z,176.00
2023-02-23T10:13:13.972Z,192.77
2023-02-23T10:15:46.013Z,194.25
2023-02-23T10:18:46.469Z,185.25
2023-02-23T10:21:38.521Z,198.27
2023-02-23T10:24:29.085Z,205.95
2023-02-23T10:27:22.076Z,197.23
2023-02-23T10:29:51.582Z,180.63
2023-02-23T10:32:22.399Z,200.98
2023-02-23T10:34:54.229Z,201.67
2023-02-23T10:39:51.737Z,187.63
2023-02-23T10:42:28.920Z,184.30
2023-02-23T10:44:57.047Z,189.27
2023-02-23T10:47:33.705Z,186.93
2023-02-23T10:50:02.124Z,188.32
2023-02-23T10:52:45.475Z,200.57
2023-02-23T10:55:26.361Z,188.63
2023-02-23T10:58:10.523Z,183.23
2023-02-23T11:00:41.176Z,187.00
2023-02-23T11:04:05.478Z,192.57
2023-02-23T11:06:39.654Z,199.25
2023-02-23T11:09:43.197Z,177.73
2023-02-23T11:12:21.901Z,184.02
2023-02-23T11:14:55.796Z,193.02
2023-02-23T11:17:28.624Z,194.05
2023-02-23T11:20:21.098Z,196.85
2023-02-23T11:22:48.613Z,190.05
2023-02-23T11:25:27.492Z,194.60
2023-02-23T11:27:57.136Z,200.35
2023-02-23T11:30:42.953Z,195.23
2023-02-23T11:33:21.514Z,190.30
2023-02-23T11:35:48.898Z,199.10
2023-02-23T11:38:24.475Z,178.80
2023-02-23T11:41:03.157Z,201.40
2023-02-23T11:43:30.709Z,187.40
2023-02-23T11:46:00.768Z,183.00
2023-02-23T11:48:49.932Z,192.27
2023-02-23T11:51:54.443Z,192.30
2023-02-23T11:54:30.824Z,170.40
2023-02-23T11:56:58.659Z,188.85
2023-02-23T11:59:32.606Z,184.70
2023-02-23T12:02:19.141Z,189.20
2023-02-23T12:04:49.639Z,192.65
2023-02-23T12:07:46.356Z,184.43
2023-02-23T12:10:27.726Z,182.60
2023-02-23T12:13:22.101Z,171.65
2023-02-23T12:15:56.885Z,171.60
2023-02-23T12:18:30.030Z,185.77
2023-02-23T12:21:08.252Z,168.65
2023-02-23T12:23:38.007Z,186.23
2023-02-23T12:26:11.852Z,169.48
2023-02-23T12:28:47.567Z,172.23
2023-02-23T12:31:34.090Z,172.90
2023-02-23T12:34:18.242Z,164.60
2023-02-23T12:36:52.888Z,163.85
2023-02-23T12:39:30.950Z,174.10
2023-02-23T12:42:08.026Z,171.30
2023-02-23T12:44:54.491Z,160.23
2023-02-23T12:47:34.082Z,154.13
2023-02-23T12:50:24.510Z,154.00
2023-02-23T12:52:54.377Z,158.18
2023-02-23T12:55:45.212Z,156.02
2023-02-23T12:58:29.163Z,158.10
2023-02-23T13:00:59.566Z,163.75
2023-02-23T13:03:55.178Z,162.10
2023-02-23T13:06:51.621Z,165.25
2023-02-23T13:09:51.769Z,164.60
2023-02-23T13:12:56.568Z,145.23
2023-02-23T13:15:42.734Z,160.88
2023-02-23T13:18:20.192Z,147.85
2023-02-23T13:21:03.786Z,149.20
2023-02-23T13:23:43.301Z,157.82
2023-02-23T13:26:24.769Z,152.80
2023-02-23T13:28:59.215Z,154.43
2023-02-23T13:31:38.651Z,145.73
2023-02-23T13:34:28.050Z,145.15
2023-02-23T13:36:56.447Z,146.90
2023-02-23T13:39:45.175Z,135.02
2023-02-23T13:42:56.603Z,151.25
2023-02-23T13:46:05.698Z,137.43
2023-02-23T13:48:56.057Z,122.60
2023-02-23T13:51:44.101Z,132.88
2023-02-23T13:54:14.783Z,121.57
2023-02-23T13:56:50.945Z,146.85
2023-02-23T13:59:30.490Z,122.88
2023-02-23T14:02:02.379Z,143.70
2023-02-23T14:04:36.544Z,155.20
2023-02-23T14:07:09.599Z,147.55
2023-02-23T14:09:53.560Z,154.77
2023-02-23T14:13:03.173Z,148.15
2023-02-23T14:15:37.911Z,142.40
2023-02-23T14:18:30.173Z,147.15
2023-02-23T14:21:18.635Z,130.02
2023-02-23T14:24:03.285Z,153.93
2023-02-23T14:26:30.591Z,137.48
2023-02-23T14:29:28.183Z,140.52
2023-02-23T14:32:10.979Z,143.10
2023-02-23T14:34:59.678Z,150.98
2023-02-23T14:37:35.080Z,148.95
2023-02-23T14:40:13.757Z,137.35
2023-02-23T14:42:41.696Z,147.68
2023-02-23T14:45:28.813Z,130.55
2023-02-23T14:48:10.059Z,142.73
2023-02-23T14:50:39.219Z,144.63
2023-02-23T14:53:13.931Z,142.63
2023-02-23T14:55:43.471Z,141.50
2023-02-23T14:58:26.757Z,134.25
2023-02-23T15:00:54.561Z,129.13
2023-02-23T15:03:22.589Z,140.38
2023-02-23T15:06:02.208Z,129.90
2023-02-23T15:08:31.712Z,152.40
2023-02-23T15:11:11.304Z,130.43
2023-02-23T15:13:43.332Z,140.98
2023-02-23T15:16:24.017Z,144.70
2023-02-23T15:18:51.819Z,150.48
2023-02-23T15:21:23.762Z,129.63
2023-02-23T15:23:58.336Z,138.70
2023-02-23T15:26:33.617Z,127.65
2023-02-23T15:29:15.873Z,127.65
2023-02-23T15:31:52.388Z,144.13
2023-02-23T15:34:23.192Z,129.65
2023-02-23T15:36:59.861Z,137.40
2023-02-23T15:39:56.975Z,134.00
2023-02-23T15:42:37.289Z,114.15
2023-02-23T15:45:17.295Z,119.95
2023-02-23T15:47:44.723Z,123.05
2023-02-23T15:50:36.017Z,132.93
2023-02-23T15:53:20.361Z,125.40
2023-02-23T15:55:48.469Z,125.88
2023-02-23T15:58:26.641Z,123.78
2023-02-23T16:00:59.993Z,118.30
2023-02-23T16:03:36.211Z,120.30
2023-02-23T16:06:21.055Z,128.55
2023-02-23T16:09:23.988Z,122.65
2023-02-23T16:12:02.181Z,111.82
2023-02-23T16:14:54.059Z,132.70
2023-02-23T16:17:27.299Z,122.28
2023-02-23T16:20:15.345Z,118.90
2023-02-23T16:22:53.562Z,122.82
2023-02-23T16:25:24.566Z,129.45
2023-02-23T16:28:08.265Z,112.27
2023-02-23T16:30:43.237Z,123.90
2023-02-23T16:33:22.383Z,138.80
2023-02-23T16:36:12.561Z,115.28
2023-02-23T16:38:41.138Z,115.07
2023-02-23T16:41:18.464Z,112.22
2023-02-23T16:43:52.141Z,142.93
2023-02-23T16:46:23.119Z,118.55
2023-02-23T16:48:50.782Z,129.93
2023-02-23T16:51:20.689Z,120.97
2023-02-23T16:53:48.087Z,129.65
2023-02-23T16:56:20.403Z,124.95
2023-02-23T16:58:57.877Z,116.78
2023-02-23T17:01:25.195Z,127.38
2023-02-23T17:03:54.525Z,125.40
2023-02-23T17:06:22.855Z,125.00
2023-02-23T17:08:58.072Z,116.78
2023-02-23T17:11:26.531Z,123.18
2023-02-23T17:13:53.855Z,133.10
2023-02-23T17:16:21.615Z,119.22
2023-02-23T17:18:49.116Z,133.68
2023-02-23T17:21:23.005Z,142.38
2023-02-23T17:23:51.776Z,132.93
2023-02-23T17:26:22.283Z,127.25
2023-02-23T17:28:50.101Z,119.82
2023-02-23T17:31:19.924Z,122.22
2023-02-23T17:33:47.725Z,128.73
2023-02-23T17:36:17.147Z,130.02
2023-02-23T17:38:45.037Z,122.63
2023-02-23T17:41:18.575Z,128.88
2023-02-23T17:43:46.403Z,118.85
2023-02-23T17:46:14.040Z,121.75
2023-02-23T17:48:44.759Z,122.82
2023-02-23T17:51:13.316Z,122.18
2023-02-23T17:53:40.835Z,124.30
2023-02-23T17:56:09.420Z,122.07
2023-02-23T17:58:38.479Z,116.35
2023-02-23T18:01:07.241Z,126.30
2023-02-23T18:03:36.944Z,116.43
2023-02-23T18:06:06.906Z,115.38
2023-02-23T18:08:35.039Z,120.25
2023-02-23T18:11:03.266Z,115.72
2023-02-23T18:13:33.293Z,110.40
2023-02-23T18:16:04.211Z,120.20
2023-02-23T18:18:32.163Z,113.70
2023-02-23T18:21:00.490Z,121.25
2023-02-23T18:23:30.544Z,123.80
2023-02-23T18:26:08.086Z,109.18
2023-02-23T18:28:35.870Z,128.02
2023-02-23T18:31:03.914Z,118.22
2023-02-23T18:33:31.585Z,101.65
2023-02-23T18:35:59.034Z,123.95
2023-02-23T18:38:26.409Z,108.05
2023-02-23T18:40:53.776Z,107.22
2023-02-23T18:43:21.142Z,110.85
2023-02-23T18:45:48.512Z,108.47
2023-02-23T18:48:15.981Z,119.90
2023-02-23T18:50:43.343Z,116.97
2023-02-23T18:53:11.011Z,123.47
2023-02-23T18:55:38.833Z,120.22
2023-02-23T18:58:06.218Z,117.22
2023-02-23T19:00:40.009Z,117.15
2023-02-23T19:03:07.677Z,124.38
2023-02-23T19:05:36.177Z,118.15
2023-02-23T19:08:13.539Z,112.25
2023-02-23T19:10:41.286Z,124.45
2023-02-23T19:13:09.355Z,119.38
2023-02-23T19:15:36.972Z,116.80
2023-02-23T19:18:04.611Z,121.97
2023-02-23T19:20:35.908Z,129.68
2023-02-23T19:23:04.005Z,123.57
2023-02-23T19:25:32.632Z,119.10
2023-02-23T19:28:00.010Z,126.10
2023-02-23T19:30:27.487Z,122.25
2023-02-23T19:32:55.112Z,120.40
2023-02-23T19:35:23.666Z,117.60
2023-02-23T19:37:52.940Z,112.88
2023-02-23T19:40:22.864Z,118.20
2023-02-23T19:42:52.763Z,111.57
2023-02-23T19:45:21.851Z,118.90
2023-02-23T19:47:52.538Z,126.65
2023-02-23T19:50:20.377Z,126.38
2023-02-23T19:52:48.294Z,120.18
2023-02-23T19:55:16.158Z,118.82
2023-02-23T19:57:43.653Z,127.93
2023-02-23T20:00:12.199Z,116.57
2023-02-23T20:02:44.254Z,128.15
2023-02-23T20:07:40.920Z,123.70
2023-02-23T20:10:13.967Z,137.52
2023-02-23T20:12:41.355Z,125.68
2023-02-23T20:15:09.765Z,139.20
2023-02-23T20:17:37.191Z,130.80
2023-02-23T20:20:06.294Z,137.05
2023-02-23T20:22:36.361Z,124.15
2023-02-23T20:25:05.977Z,136.20
2023-02-23T20:27:35.669Z,123.43
2023-02-23T20:30:04.356Z,128.88
2023-02-23T20:32:31.997Z,134.88
2023-02-23T20:35:02.561Z,134.32
2023-02-23T20:37:30.073Z,121.28
2023-02-23T20:39:57.433Z,137.10
2023-02-23T20:42:28.172Z,133.63
2023-02-23T20:44:56.230Z,132.88
2023-02-23T20:47:24.189Z,124.57
2023-02-23T20:49:52.285Z,130.75
2023-02-23T20:52:19.967Z,136.60
2023-02-23T20:54:47.321Z,131.20
2023-02-23T20:57:14.683Z,120.95
2023-02-23T20:59:43.191Z,122.88
2023-02-23T21:02:13.985Z,136.27
2023-02-23T21:04:44.298Z,120.13
2023-02-23T21:07:13.559Z,140.48
2023-02-23T21:09:41.230Z,137.38
2023-02-23T21:12:10.597Z,130.68
2023-02-23T21:14:38.241Z,133.95
2023-02-23T21:17:06.445Z,127.15
2023-02-23T21:19:34.022Z,134.77
2023-02-23T21:22:01.707Z,130.25
2023-02-23T21:24:33.771Z,142.90
2023-02-23T21:27:05.329Z,133.23
2023-02-23T21:29:33.479Z,136.18
2023-02-23T21:32:00.861Z,139.20
2023-02-23T21:34:28.255Z,136.55
2023-02-23T21:36:59.205Z,125.50
2023-02-23T21:39:28.110Z,140.57
2023-02-23T21:41:58.822Z,137.68
2023-02-23T21:44:26.477Z,132.13
2023-02-23T21:46:53.770Z,130.50
2023-02-23T21:49:21.108Z,142.32
2023-02-23T21:51:48.444Z,135.13
2023-02-23T21:54:15.808Z,140.93
2023-02-23T21:56:43.083Z,146.73
2023-02-23T21:59:10.837Z,139.23
2023-02-23T22:01:39.940Z,162.18
2023-02-23T22:04:11.088Z,148.52
2023-02-23T22:06:43.096Z,153.50
2023-02-23T22:09:11.865Z,149.77
2023-02-23T22:11:43.164Z,143.20
2023-02-23T22:14:11.357Z,150.60
2023-02-23T22:16:41.865Z,157.23
2023-02-23T22:19:09.319Z,147.95
2023-02-23T22:21:39.359Z,157.30
2023-02-23T22:24:07.801Z,152.30
2023-02-23T22:26:37.415Z,144.68
2023-02-23T22:29:06.129Z,133.07
2023-02-23T22:31:34.053Z,147.60
2023-02-23T22:34:01.616Z,139.93
2023-02-23T22:36:29.371Z,156.30
2023-02-23T22:39:00.290Z,150.63
2023-02-23T22:41:30.813Z,140.73
2023-02-23T22:43:58.373Z,149.13
2023-02-23T22:46:26.191Z,154.82
2023-02-23T22:48:53.676Z,141.30
2023-02-23T22:51:21.482Z,141.15
2023-02-23T22:53:48.997Z,152.40
2023-02-23T22:56:17.636Z,144.90
2023-02-23T22:58:45.006Z,153.43
2023-02-23T23:01:13.657Z,153.98
2023-02-23T23:03:45.927Z,142.52
2023-02-23T23:06:22.438Z,166.00
2023-02-23T23:08:52.457Z,158.98
2023-02-23T23:11:22.706Z,146.15
2023-02-23T23:14:01.621Z,152.48
2023-02-23T23:16:32.625Z,148.52
2023-02-23T23:19:07.791Z,143.57
2023-02-23T23:21:35.859Z,142.27
2023-02-23T23:24:05.919Z,141.32
2023-02-23T23:26:35.843Z,147.25
2023-02-23T23:29:07.477Z,142.60
2023-02-23T23:31:35.759Z,140.05
2023-02-23T23:34:10.147Z,142.48
2023-02-23T23:36:43.055Z,144.82
2023-02-23T23:39:16.316Z,139.35
2023-02-23T23:41:47.863Z,137.13
2023-02-23T23:44:24.139Z,139.15
2023-02-23T23:46:52.820Z,148.30
2023-02-23T23:49:27.276Z,133.13
2023-02-23T23:51:56.515Z,149.27
2023-02-23T23:54:27.479Z,139.93
2023-02-23T23:56:54.942Z,146.18
2023-02-23T23:59:24.025Z,154.35
